Time;durP1;ratioP1;P1;durP2;ratioP2;P2;SDS_P1;SDS_P2;PMS_P1;PMS_P2;Temp;Humidity;BMP_temperature;BMP_pressure;BME280_temperature;BME280_humidity;BME280_pressure;Samples;Min_cycle;Max_cycle;Signal;HPM_P1;HPM_P2
2022/02/05 00:01:18;;;;;;;5.65;1.90;;;;;;;;;;5031018;28;20026;-60
2022/02/05 00:03:48;;;;;;;8.13;2.25;;;;;;;;;;5031234;28;20029;-61
2022/02/05 00:06:18;;;;;;;6.22;2.00;;;;;;;;;;5031967;28;20021;-60
2022/02/05 00:43:12;;;;;;;1.63;1.25;;;;;;;;;;5028556;28;20021;-60
2022/02/05 00:45:41;;;;;;;1.95;1.30;;;;;;;;;;5031146;28;20044;-60
2022/02/05 00:48:07;;;;;;;3.15;1.00;;;;;;;;;;5055625;28;20032;-60
2022/02/05 00:50:37;;;;;;;2.78;1.38;;;;;;;;;;5031092;28;20033;-60
2022/02/05 00:53:26;;;;;;;2.03;1.42;;;;;;;;;;5033938;28;20034;-60
2022/02/05 00:56:01;;;;;;;1.80;1.02;;;;;;;;;;5031141;28;20610;-59
2022/02/05 00:58:26;;;;;;;3.05;1.65;;;;;;;;;;5028489;28;20033;-61
2022/02/05 01:00:51;;;;;;;4.10;1.70;;;;;;;;;;5029791;28;20036;-60
2022/02/05 01:03:17;;;;;;;2.45;1.30;;;;;;;;;;5036091;28;20031;-60
2022/02/05 01:05:43;;;;;;;2.60;1.50;;;;;;;;;;5032143;28;20468;-60
2022/02/05 01:08:09;;;;;;;3.28;1.80;;;;;;;;;;5030258;28;20025;-61
2022/02/05 01:10:35;;;;;;;2.70;1.42;;;;;;;;;;5031507;28;20050;-61
2022/02/05 01:13:05;;;;;;;4.45;1.60;;;;;;;;;;5035265;28;20037;-59
2022/02/05 01:15:37;;;;;;;3.05;1.25;;;;;;;;;;5032444;28;20029;-60
2022/02/05 01:18:06;;;;;;;4.60;1.73;;;;;;;;;;5029736;28;20025;-60
2022/02/05 01:23:01;;;;;;;3.67;1.15;;;;;;;;;;5033639;28;20461;-61
2022/02/05 01:25:33;;;;;;;1.27;0.88;;;;;;;;;;5028367;28;20090;-60
2022/02/05 01:28:06;;;;;;;2.70;1.30;;;;;;;;;;5030173;28;20112;-60
2022/02/05 01:30:33;;;;;;;2.25;1.15;;;;;;;;;;5027793;28;20365;-60
2022/02/05 01:33:14;;;;;;;3.92;1.30;;;;;;;;;;5029161;28;20115;-59
2022/02/05 01:57:03;;;;;;;2.50;1.35;;;;;;;;;;5030843;28;20136;-62
2022/02/05 02:15:46;;;;;;;4.10;1.58;;;;;;;;;;5031212;28;20033;-59
2022/02/05 02:20:59;;;;;;;3.67;1.83;;;;;;;;;;5028414;28;19917;-61
2022/02/05 02:26:23;;;;;;;3.28;1.50;;;;;;;;;;5026110;28;20101;-60
2022/02/05 02:31:20;;;;;;;3.53;1.50;;;;;;;;;;5027296;28;20112;-60
2022/02/05 02:33:49;;;;;;;3.63;1.58;;;;;;;;;;5027969;28;20017;-60
2022/02/05 02:36:29;;;;;;;5.85;1.80;;;;;;;;;;5029810;28;20033;-60
2022/02/05 02:39:00;;;;;;;;;;;;;;;;;;5028957;28;20037;-60
2022/02/05 02:41:31;;;;;;;4.18;1.52;;;;;;;;;;5029730;28;19917;-59
2022/02/05 02:43:57;;;;;;;2.15;1.55;;;;;;;;;;5029070;28;20037;-59
2022/02/05 02:46:22;;;;;;;3.28;1.50;;;;;;;;;;5032099;28;20052;-59
2022/02/05 02:48:49;;;;;;;4.70;1.55;;;;;;;;;;5035528;28;20057;-60
2022/02/05 02:56:53;;;;;;;3.13;1.50;;;;;;;;;;5026659;28;20079;-60
2022/02/05 02:59:36;;;;;;;5.18;1.70;;;;;;;;;;5031335;28;20021;-60
2022/02/05 03:02:10;;;;;;;6.18;1.88;;;;;;;;;;5033351;28;20025;-60
2022/02/05 03:04:36;;;;;;;2.33;1.38;;;;;;;;;;5035907;28;20029;-59
2022/02/05 03:07:02;;;;;;;4.93;1.83;;;;;;;;;;5038984;28;20024;-59
2022/02/05 03:09:28;;;;;;;5.50;1.70;;;;;;;;;;5039674;28;20047;-60
2022/02/05 03:11:53;;;;;;;4.80;1.77;;;;;;;;;;5037188;28;20029;-59
2022/02/05 03:14:19;;;;;;;3.63;1.42;;;;;;;;;;5033407;28;20120;-59
2022/02/05 03:16:49;;;;;;;4.07;1.60;;;;;;;;;;5030829;28;20554;-60
2022/02/05 03:19:15;;;;;;;4.32;1.85;;;;;;;;;;5036940;28;20095;-60
2022/02/05 03:21:42;;;;;;;7.10;1.60;;;;;;;;;;5033587;28;20036;-61
2022/02/05 03:24:08;;;;;;;5.57;2.17;;;;;;;;;;5038344;28;20108;-60
2022/02/05 03:26:35;;;;;;;4.25;1.83;;;;;;;;;;5037060;28;20112;-61
2022/02/05 03:29:01;;;;;;;2.40;1.60;;;;;;;;;;5028567;28;20480;-60
2022/02/05 03:31:27;;;;;;;4.60;2.10;;;;;;;;;;5034092;28;20421;-60
2022/02/05 03:33:52;;;;;;;4.95;2.20;;;;;;;;;;5030726;28;20091;-60
2022/02/05 03:36:18;;;;;;;5.65;1.85;;;;;;;;;;5033005;28;20358;-59
2022/02/05 03:38:43;;;;;;;6.18;2.05;;;;;;;;;;5035504;28;20472;-60
2022/02/05 03:41:09;;;;;;;4.75;2.47;;;;;;;;;;5033471;28;20033;-60
2022/02/05 03:43:34;;;;;;;6.57;2.40;;;;;;;;;;5032346;28;20029;-60
2022/02/05 03:45:59;;;;;;;4.43;2.53;;;;;;;;;;5031611;28;20404;-62
2022/02/05 03:48:25;;;;;;;8.55;2.45;;;;;;;;;;5030248;28;20029;-59
2022/02/05 03:50:50;;;;;;;6.80;2.38;;;;;;;;;;5030854;28;20112;-59
2022/02/05 03:53:17;;;;;;;4.57;2.53;;;;;;;;;;5034073;28;20029;-61
2022/02/05 03:55:45;;;;;;;5.32;2.42;;;;;;;;;;5025067;28;20045;-61
2022/02/05 03:58:11;;;;;;;4.57;2.47;;;;;;;;;;5035107;28;20032;-60
2022/02/05 04:00:36;;;;;;;9.40;2.78;;;;;;;;;;5040919;28;20033;-60
2022/02/05 04:03:02;;;;;;;5.20;2.60;;;;;;;;;;5036078;28;20030;-61
2022/02/05 04:05:28;;;;;;;5.45;2.70;;;;;;;;;;5034842;28;20132;-60
2022/02/05 04:07:55;;;;;;;4.25;2.25;;;;;;;;;;5042136;28;20117;-61
2022/02/05 04:10:27;;;;;;;3.50;2.00;;;;;;;;;;5030527;28;20033;-60
2022/02/05 04:15:58;;;;;;;7.47;2.50;;;;;;;;;;5037513;28;20641;-60
2022/02/05 04:18:24;;;;;;;4.95;2.90;;;;;;;;;;5035409;28;20025;-60
2022/02/05 04:20:50;;;;;;;11.60;2.92;;;;;;;;;;5038449;28;20047;-60
2022/02/05 04:23:15;;;;;;;5.00;2.63;;;;;;;;;;5029181;28;20029;-60
2022/02/05 04:25:41;;;;;;;7.97;3.05;;;;;;;;;;5024246;28;20079;-60
2022/02/05 04:28:07;;;;;;;5.53;2.78;;;;;;;;;;5028194;28;20403;-61
2022/02/05 04:30:33;;;;;;;5.97;2.72;;;;;;;;;;5030065;28;20140;-60
2022/02/05 04:32:59;;;;;;;8.48;2.83;;;;;;;;;;5029156;28;20035;-60
2022/02/05 04:35:24;;;;;;;7.30;2.90;;;;;;;;;;5030338;28;20089;-60
2022/02/05 04:37:53;;;;;;;8.27;2.90;;;;;;;;;;5028763;28;20108;-60
2022/02/05 04:40:28;;;;;;;;;;;;;;;;;;;;;
2022/02/05 04:43:08;;;;;;;4.65;2.83;;;;;;;;;;5031538;28;20076;-60
2022/02/05 05:04:08;;;;;;;;;;;;;;;;;;;;;
2022/02/05 05:09:11;;;;;;;4.80;2.63;;;;;;;;;;5030925;28;20025;-60
2022/02/05 05:11:45;;;;;;;5.00;2.70;;;;;;;;;;5028946;28;20107;-60
2022/02/05 05:21:57;;;;;;;9.20;2.53;;;;;;;;;;5032733;28;20021;-59
2022/02/05 05:24:22;;;;;;;3.85;2.28;;;;;;;;;;5034579;28;20025;-59
2022/02/05 05:26:48;;;;;;;7.43;3.00;;;;;;;;;;5027342;28;20021;-60
2022/02/05 05:29:13;;;;;;;4.78;2.38;;;;;;;;;;5026635;28;20086;-60
2022/02/05 05:31:39;;;;;;;10.63;2.63;;;;;;;;;;5027876;28;20108;-59
2022/02/05 05:34:04;;;;;;;3.15;2.47;;;;;;;;;;5028359;28;20071;-60
2022/02/05 05:36:30;;;;;;;5.40;2.30;;;;;;;;;;5029127;28;20582;-60
2022/02/05 05:39:02;;;;;;;5.28;2.00;;;;;;;;;;5031706;28;20039;-61
2022/02/05 05:41:32;;;;;;;6.55;2.83;;;;;;;;;;5029473;28;20111;-59
2022/02/05 05:46:46;;;;;;;6.88;2.63;;;;;;;;;;5030180;28;20348;-60
2022/02/05 05:51:44;;;;;;;5.82;2.45;;;;;;;;;;5023589;28;20057;-60
2022/02/05 05:54:10;;;;;;;5.70;2.10;;;;;;;;;;5031831;28;20021;-60
2022/02/05 05:56:36;;;;;;;6.78;2.78;;;;;;;;;;5030172;28;20128;-60
2022/02/05 05:59:03;;;;;;;3.53;2.15;;;;;;;;;;5029593;28;20073;-60
2022/02/05 06:01:29;;;;;;;8.18;2.42;;;;;;;;;;5026956;28;20053;-60
2022/02/05 06:03:54;;;;;;;7.30;2.20;;;;;;;;;;5032359;28;20025;-59
2022/02/05 06:06:20;;;;;;;5.85;2.45;;;;;;;;;;5030615;28;20025;-60
2022/02/05 06:08:45;;;;;;;6.88;2.30;;;;;;;;;;5028672;28;20067;-61
2022/02/05 06:11:10;;;;;;;8.45;2.90;;;;;;;;;;5032844;28;20028;-61
2022/02/05 06:13:36;;;;;;;8.68;2.75;;;;;;;;;;5030307;28;20052;-62
2022/02/05 06:16:05;;;;;;;9.02;3.67;;;;;;;;;;5036792;28;20107;-61
2022/02/05 06:18:30;;;;;;;9.48;3.38;;;;;;;;;;5031894;28;20025;-60
2022/02/05 06:20:57;;;;;;;5.72;2.50;;;;;;;;;;5038100;28;20040;-62
2022/02/05 06:23:22;;;;;;;6.32;2.45;;;;;;;;;;5032917;28;20401;-63
2022/02/05 06:25:48;;;;;;;4.50;2.58;;;;;;;;;;5041018;28;20028;-62
2022/02/05 06:28:15;;;;;;;9.38;2.90;;;;;;;;;;5033058;28;20033;-62
2022/02/05 06:30:41;;;;;;;5.70;3.10;;;;;;;;;;5027632;28;20508;-63
2022/02/05 06:33:07;;;;;;;7.22;2.50;;;;;;;;;;5029912;28;20079;-62
2022/02/05 06:35:32;;;;;;;4.78;2.10;;;;;;;;;;5031426;28;20033;-62
2022/02/05 06:37:58;;;;;;;6.55;3.15;;;;;;;;;;5032629;28;20025;-63
2022/02/05 06:40:23;;;;;;;10.85;2.90;;;;;;;;;;5032020;28;20040;-63
2022/02/05 06:42:49;;;;;;;7.65;2.67;;;;;;;;;;5033311;28;20397;-63
2022/02/05 06:45:15;;;;;;;11.68;4.18;;;;;;;;;;5033959;28;20090;-61
2022/02/05 06:47:41;;;;;;;6.20;3.38;;;;;;;;;;5034476;28;20025;-62
2022/02/05 06:50:07;;;;;;;6.80;2.67;;;;;;;;;;5035453;28;20034;-62
2022/02/05 06:52:33;;;;;;;7.60;2.72;;;;;;;;;;5032849;28;20039;-63
2022/02/05 06:54:59;;;;;;;8.63;3.83;;;;;;;;;;5030487;28;20541;-62
2022/02/05 06:57:24;;;;;;;7.22;2.58;;;;;;;;;;5030976;28;20060;-62
2022/02/05 06:59:50;;;;;;;6.07;2.42;;;;;;;;;;5034781;28;20692;-62
2022/02/05 07:02:16;;;;;;;6.85;2.35;;;;;;;;;;5035160;28;20045;-62
2022/02/05 07:04:42;;;;;;;7.45;2.53;;;;;;;;;;5035000;28;20167;-61
2022/02/05 07:07:07;;;;;;;4.25;1.83;;;;;;;;;;5031122;28;20036;-62
2022/02/05 07:09:33;;;;;;;5.20;2.58;;;;;;;;;;5032739;28;20029;-62
2022/02/05 07:12:00;;;;;;;7.28;2.45;;;;;;;;;;5029344;28;20076;-62
2022/02/05 07:14:33;;;;;;;6.00;2.53;;;;;;;;;;5031162;28;20560;-61
2022/02/05 07:17:24;;;;;;;7.85;2.55;;;;;;;;;;5031738;28;20411;-61
2022/02/05 07:22:17;;;;;;;7.72;3.22;;;;;;;;;;5034150;28;20041;-62
2022/02/05 07:29:52;;;;;;;6.13;2.63;;;;;;;;;;5032008;28;20032;-61
2022/02/05 07:32:17;;;;;;;4.65;2.28;;;;;;;;;;5032615;28;20412;-62
2022/02/05 07:34:43;;;;;;;3.33;2.38;;;;;;;;;;5031280;28;20371;-63
2022/02/05 07:37:09;;;;;;;4.78;2.22;;;;;;;;;;5031321;28;20095;-63
2022/02/05 07:39:46;;;;;;;6.90;1.92;;;;;;;;;;5031128;28;20033;-62
2022/02/05 07:42:18;;;;;;;6.95;2.45;;;;;;;;;;5034500;28;20041;-63
2022/02/05 07:44:43;;;;;;;4.57;2.08;;;;;;;;;;5030646;28;20420;-61
2022/02/05 07:47:09;;;;;;;6.82;2.65;;;;;;;;;;5032353;28;20113;-62
2022/02/05 07:49:43;;;;;;;4.55;2.10;;;;;;;;;;5029720;28;20517;-60
2022/02/05 07:52:10;;;;;;;7.85;2.70;;;;;;;;;;5027207;28;20049;-62
2022/02/05 07:54:37;;;;;;;4.70;2.42;;;;;;;;;;5026955;28;20022;-61
2022/02/05 07:57:03;;;;;;;3.63;2.00;;;;;;;;;;5026796;28;20048;-62
2022/02/05 07:59:28;;;;;;;5.28;2.38;;;;;;;;;;5030183;28;20179;-63
2022/02/05 08:01:54;;;;;;;6.72;2.92;;;;;;;;;;5036802;28;20183;-63
2022/02/05 08:04:19;;;;;;;7.68;2.30;;;;;;;;;;5037742;28;20056;-62
2022/02/05 08:06:46;;;;;;;10.77;2.50;;;;;;;;;;5036491;28;20040;-61
2022/02/05 08:09:25;;;;;;;10.65;2.50;;;;;;;;;;5029173;28;20021;-61
2022/02/05 08:11:56;;;;;;;6.97;2.05;;;;;;;;;;5029454;28;20047;-61
2022/02/05 08:14:22;;;;;;;6.47;2.55;;;;;;;;;;5035937;28;20031;-61
2022/02/05 08:16:53;;;;;;;6.47;2.92;;;;;;;;;;5035093;28;20025;-61
2022/02/05 08:19:19;;;;;;;7.85;2.35;;;;;;;;;;5026863;28;20036;-62
2022/02/05 08:21:44;;;;;;;4.88;2.13;;;;;;;;;;5039102;28;20025;-61
2022/02/05 08:24:10;;;;;;;6.13;2.17;;;;;;;;;;5034192;28;20029;-61
2022/02/05 08:26:37;;;;;;;3.55;1.90;;;;;;;;;;5026348;28;20035;-62
2022/02/05 08:29:04;;;;;;;6.32;2.78;;;;;;;;;;5025405;28;20033;-61
2022/02/05 08:31:29;;;;;;;10.63;3.25;;;;;;;;;;5024845;28;20030;-61
2022/02/05 08:33:55;;;;;;;6.90;2.72;;;;;;;;;;5031398;28;20120;-63
2022/02/05 08:36:23;;;;;;;4.30;1.98;;;;;;;;;;5029291;28;20433;-60
2022/02/05 08:38:50;;;;;;;3.05;1.90;;;;;;;;;;5027098;28;20029;-62
2022/02/05 08:41:16;;;;;;;6.78;2.17;;;;;;;;;;5031492;28;20108;-60
2022/02/05 08:43:41;;;;;;;6.43;2.72;;;;;;;;;;5028348;28;20108;-63
2022/02/05 08:46:07;;;;;;;3.97;2.10;;;;;;;;;;5026010;28;20021;-63
2022/02/05 08:48:32;;;;;;;3.50;2.17;;;;;;;;;;5025504;28;20510;-62
2022/02/05 08:50:58;;;;;;;9.07;3.20;;;;;;;;;;5030290;28;20068;-62
2022/02/05 08:53:24;;;;;;;4.47;2.10;;;;;;;;;;5023445;28;20037;-61
2022/02/05 08:55:52;;;;;;;7.60;2.65;;;;;;;;;;5026664;28;20353;-61
2022/02/05 08:58:17;;;;;;;7.90;2.67;;;;;;;;;;5023006;28;20035;-63
2022/02/05 09:01:32;;;;;;;14.38;2.15;;;;;;;;;;5025139;28;20037;-64
2022/02/05 09:05:54;;;;;;;5.55;3.03;;;;;;;;;;5023537;28;20029;-63
2022/02/05 09:08:38;;;;;;;7.68;3.60;;;;;;;;;;5024056;28;20116;-64
2022/02/05 09:11:30;;;;;;;6.05;2.13;;;;;;;;;;5025122;28;20036;-65
2022/02/05 09:14:12;;;;;;;7.28;2.22;;;;;;;;;;5021227;28;20032;-66
2022/02/05 09:16:39;;;;;;;4.85;2.50;;;;;;;;;;5027360;28;20479;-66
2022/02/05 09:19:05;;;;;;;15.40;3.58;;;;;;;;;;5022627;28;20034;-67
2022/02/05 09:21:31;;;;;;;8.02;4.43;;;;;;;;;;5021287;28;20770;-65
2022/02/05 09:23:59;;;;;;;19.33;5.18;;;;;;;;;;5022094;28;20027;-64
2022/02/05 09:26:25;;;;;;;9.27;3.40;;;;;;;;;;5023929;28;20102;-65
2022/02/05 09:28:53;;;;;;;11.48;3.28;;;;;;;;;;5022545;28;20499;-64
2022/02/05 09:31:32;;;;;;;17.90;6.25;;;;;;;;;;5021572;28;20404;-63
2022/02/05 09:33:58;;;;;;;13.10;5.60;;;;;;;;;;5021647;28;20033;-63
2022/02/05 09:36:26;;;;;;;11.68;4.03;;;;;;;;;;5030488;28;20020;-66
2022/02/05 09:38:55;;;;;;;19.45;7.25;;;;;;;;;;5024131;28;20052;-67
2022/02/05 09:41:25;;;;;;;8.45;3.20;;;;;;;;;;5022466;28;20033;-62
2022/02/05 09:43:51;;;;;;;12.05;4.78;;;;;;;;;;5023031;28;20651;-65
2022/02/05 09:46:21;;;;;;;12.05;4.65;;;;;;;;;;5021848;28;20112;-63
2022/02/05 09:48:47;;;;;;;;;;;;;;;;;;5056145;28;20037;-64
2022/02/05 09:51:19;;;;;;;7.57;2.75;;;;;;;;;;5025565;28;19964;-62
2022/02/05 09:53:49;;;;;;;19.90;6.55;;;;;;;;;;5025073;28;20236;-64
2022/02/05 09:56:16;;;;;;;7.72;2.05;;;;;;;;;;5025938;28;20037;-63
2022/02/05 09:58:41;;;;;;;5.07;1.80;;;;;;;;;;5026510;28;20041;-64
2022/02/05 10:01:13;;;;;;;9.27;2.22;;;;;;;;;;5025840;28;20041;-63
2022/02/05 10:03:42;;;;;;;6.57;1.77;;;;;;;;;;5026432;28;20265;-63
2022/02/05 10:06:19;;;;;;;6.95;2.60;;;;;;;;;;5026111;28;20037;-63
2022/02/05 10:08:56;;;;;;;7.32;1.90;;;;;;;;;;5025816;28;20048;-63
2022/02/05 10:11:21;;;;;;;10.23;2.90;;;;;;;;;;5025382;28;20156;-63
2022/02/05 10:13:47;;;;;;;9.73;2.65;;;;;;;;;;5025903;28;20128;-64
2022/02/05 10:16:13;;;;;;;8.93;3.17;;;;;;;;;;5026069;28;20044;-63
2022/02/05 10:18:43;;;;;;;27.00;7.47;;;;;;;;;;5024348;28;20029;-63
2022/02/05 10:21:26;;;;;;;5.72;2.13;;;;;;;;;;5025403;28;20037;-64
2022/02/05 10:23:53;;;;;;;9.32;2.78;;;;;;;;;;5025869;28;20397;-63
2022/02/05 10:26:43;;;;;;;12.50;3.72;;;;;;;;;;5025706;28;20045;-63
2022/02/05 10:29:16;;;;;;;6.90;2.20;;;;;;;;;;5024822;28;20408;-64
2022/02/05 10:32:16;;;;;;;6.43;2.53;;;;;;;;;;5025560;28;20477;-64
2022/02/05 10:35:02;;;;;;;9.07;2.78;;;;;;;;;;5025809;28;20072;-63
2022/02/05 10:37:32;;;;;;;8.75;2.70;;;;;;;;;;5025231;28;20130;-64
2022/02/05 10:40:09;;;;;;;8.30;3.42;;;;;;;;;;5023209;28;20303;-63
2022/02/05 10:45:24;;;;;;;15.27;3.03;;;;;;;;;;5024691;28;20538;-64
2022/02/05 10:47:50;;;;;;;6.78;2.15;;;;;;;;;;5024325;28;20055;-63
2022/02/05 10:50:19;;;;;;;8.48;2.90;;;;;;;;;;5024574;28;20037;-63
2022/02/05 10:52:54;;;;;;;9.20;3.97;;;;;;;;;;5026150;28;20033;-65
2022/02/05 10:55:37;;;;;;;6.72;3.10;;;;;;;;;;5024642;28;20034;-64
2022/02/05 11:08:07;;;;;;;6.82;2.30;;;;;;;;;;5028585;28;20029;-64
2022/02/05 11:21:09;;;;;;;9.75;3.38;;;;;;;;;;5016178;28;20136;-64
2022/02/05 11:23:35;;;;;;;7.13;2.20;;;;;;;;;;5019712;28;20038;-65
2022/02/05 11:26:02;;;;;;;8.15;2.72;;;;;;;;;;5019415;28;20438;-64
2022/02/05 11:28:43;;;;;;;6.93;2.42;;;;;;;;;;5026161;28;20041;-65
2022/02/05 11:31:33;;;;;;;6.75;2.25;;;;;;;;;;5028804;28;20440;-65
2022/02/05 11:34:14;;;;;;;;;;;;;;;;;;5027163;28;20201;-65
2022/02/05 11:37:05;;;;;;;4.55;1.67;;;;;;;;;;5026714;28;19917;-63
2022/02/05 11:39:44;;;;;;;4.70;1.75;;;;;;;;;;5028444;28;20457;-63
2022/02/05 11:42:30;;;;;;;4.73;2.00;;;;;;;;;;5025003;28;20103;-64
2022/02/05 11:45:24;;;;;;;6.25;2.03;;;;;;;;;;5028368;28;20290;-64
2022/02/05 11:47:50;;;;;;;5.82;1.80;;;;;;;;;;5026311;28;20413;-67
2022/02/05 11:50:18;;;;;;;3.83;1.85;;;;;;;;;;5031744;28;20025;-65
2022/02/05 11:52:44;;;;;;;7.13;2.08;;;;;;;;;;5030735;28;20108;-64
2022/02/05 11:55:11;;;;;;;7.75;1.98;;;;;;;;;;5027384;28;20163;-64
2022/02/05 11:57:44;;;;;;;6.80;1.95;;;;;;;;;;5032111;28;20045;-65
2022/02/05 12:00:11;;;;;;;5.88;1.77;;;;;;;;;;5033393;28;20214;-63
2022/02/05 12:02:42;;;;;;;8.73;1.92;;;;;;;;;;5031481;28;20386;-63
2022/02/05 12:05:19;;;;;;;5.00;2.20;;;;;;;;;;5025922;28;20037;-58
2022/02/05 12:08:03;;;;;;;12.50;2.78;;;;;;;;;;5057635;28;20778;-59
2022/02/05 12:10:51;;;;;;;8.07;2.95;;;;;;;;;;5025210;28;20480;-60
2022/02/05 12:13:24;;;;;;;4.63;1.98;;;;;;;;;;5030965;28;20196;-63
2022/02/05 12:15:55;;;;;;;3.83;1.50;;;;;;;;;;5033067;28;20041;-63
2022/02/05 12:18:27;;;;;;;6.63;2.50;;;;;;;;;;5035413;28;20127;-63
2022/02/05 12:25:58;;;;;;;4.95;1.60;;;;;;;;;;5028757;28;20030;-64
2022/02/05 12:28:37;;;;;;;9.63;2.95;;;;;;;;;;5030507;28;20047;-64
2022/02/05 12:31:04;;;;;;;7.05;2.40;;;;;;;;;;5024583;28;20542;-64
2022/02/05 12:33:45;;;;;;;5.97;2.10;;;;;;;;;;5030854;28;20571;-64
2022/02/05 12:36:11;;;;;;;4.57;1.88;;;;;;;;;;5027272;28;20029;-64
2022/02/05 12:38:40;;;;;;;5.43;2.13;;;;;;;;;;5022845;28;20029;-64
2022/02/05 12:41:07;;;;;;;4.77;2.10;;;;;;;;;;5034151;28;20029;-64
2022/02/05 12:43:51;;;;;;;5.45;1.83;;;;;;;;;;5026224;28;20047;-66
2022/02/05 12:46:19;;;;;;;4.85;1.92;;;;;;;;;;5026167;28;20377;-64
2022/02/05 12:48:50;;;;;;;7.38;2.33;;;;;;;;;;5019899;28;20025;-64
2022/02/05 12:51:15;;;;;;;6.32;1.98;;;;;;;;;;5024323;28;20033;-64
2022/02/05 12:53:43;;;;;;;4.63;2.00;;;;;;;;;;5033997;28;20036;-63
2022/02/05 12:56:17;;;;;;;11.43;3.03;;;;;;;;;;5028401;28;20029;-64
2022/02/05 12:59:02;;;;;;;3.97;1.50;;;;;;;;;;5023557;28;20561;-64
2022/02/05 13:01:28;;;;;;;3.97;2.35;;;;;;;;;;5029623;28;20442;-64
2022/02/05 13:04:17;;;;;;;8.45;2.67;;;;;;;;;;5027464;28;20695;-64
2022/02/05 13:06:43;;;;;;;6.25;1.92;;;;;;;;;;5033335;28;20037;-65
2022/02/05 13:09:23;;;;;;;4.43;1.73;;;;;;;;;;5032387;28;20056;-65
2022/02/05 13:11:53;;;;;;;;;;;;;;;;;;5032074;28;20087;-64
2022/02/05 13:14:18;;;;;;;5.25;1.80;;;;;;;;;;5021736;28;19921;-64
2022/02/05 13:16:46;;;;;;;6.13;2.08;;;;;;;;;;5029459;28;20017;-64
2022/02/05 13:19:25;;;;;;;5.72;2.10;;;;;;;;;;5029760;28;20056;-64
2022/02/05 13:27:28;;;;;;;6.50;2.42;;;;;;;;;;5025747;28;20029;-64
2022/02/05 13:33:34;;;;;;;6.43;1.80;;;;;;;;;;5025208;28;20384;-64
2022/02/05 13:36:24;;;;;;;5.20;1.63;;;;;;;;;;5025151;28;20025;-63
2022/02/05 13:42:12;;;;;;;8.30;2.95;;;;;;;;;;5024717;28;20040;-65
2022/02/05 13:47:19;;;;;;;7.30;1.98;;;;;;;;;;5027643;28;20029;-65
2022/02/05 13:50:04;;;;;;;6.38;1.80;;;;;;;;;;5024897;28;20033;-64
2022/02/05 13:52:40;;;;;;;2.33;1.33;;;;;;;;;;5027300;28;20041;-65
2022/02/05 13:55:18;;;;;;;5.78;1.70;;;;;;;;;;5029884;28;20437;-64
2022/02/05 13:57:54;;;;;;;5.40;1.60;;;;;;;;;;5029279;28;20026;-65
2022/02/05 14:00:20;;;;;;;4.65;2.10;;;;;;;;;;5029909;28;20029;-66
2022/02/05 14:02:56;;;;;;;7.15;1.90;;;;;;;;;;5028870;28;20024;-65
2022/02/05 14:05:21;;;;;;;4.65;1.85;;;;;;;;;;5029087;28;20025;-65
2022/02/05 14:07:48;;;;;;;3.33;1.50;;;;;;;;;;5027263;28;20047;-65
2022/02/05 14:10:19;;;;;;;3.90;1.40;;;;;;;;;;5033001;28;20536;-64
2022/02/05 14:12:52;;;;;;;2.78;1.40;;;;;;;;;;5029636;28;20033;-64
2022/02/05 14:15:19;;;;;;;2.60;1.40;;;;;;;;;;5027248;28;20017;-65
2022/02/05 14:17:48;;;;;;;5.63;1.98;;;;;;;;;;5025693;28;20505;-64
2022/02/05 14:20:15;;;;;;;4.70;1.70;;;;;;;;;;5026795;28;20107;-64
2022/02/05 14:22:47;;;;;;;4.80;1.67;;;;;;;;;;5025080;28;20030;-58
2022/02/05 14:25:20;;;;;;;6.85;2.10;;;;;;;;;;5027329;28;20067;-58
2022/02/05 14:27:59;;;;;;;4.25;1.77;;;;;;;;;;5024174;28;20034;-58
2022/02/05 14:30:27;;;;;;;9.05;2.45;;;;;;;;;;5029137;28;20013;-59
2022/02/05 14:32:53;;;;;;;9.38;2.38;;;;;;;;;;5027073;28;20036;-59
2022/02/05 14:40:45;;;;;;;4.00;1.90;;;;;;;;;;5029242;28;20110;-64
2022/02/05 14:43:14;;;;;;;9.00;2.70;;;;;;;;;;5030770;28;20057;-63
2022/02/05 14:45:40;;;;;;;17.10;6.53;;;;;;;;;;5029128;28;20103;-63
2022/02/05 14:48:05;;;;;;;12.63;5.25;;;;;;;;;;5031047;28;20045;-62
2022/02/05 14:50:31;;;;;;;11.45;5.38;;;;;;;;;;5024736;28;20453;-62
2022/02/05 14:52:56;;;;;;;7.93;2.58;;;;;;;;;;5031579;28;20040;-62
2022/02/05 14:55:22;;;;;;;8.60;2.80;;;;;;;;;;5028500;28;20076;-62
2022/02/05 14:57:48;;;;;;;6.90;2.60;;;;;;;;;;5028168;28;20029;-64
2022/02/05 15:00:14;;;;;;;8.52;3.92;;;;;;;;;;5029973;28;20029;-64
2022/02/05 15:02:40;;;;;;;34.75;14.75;;;;;;;;;;5034773;28;20033;-62
2022/02/05 15:05:11;;;;;;;31.55;13.30;;;;;;;;;;5030048;28;20036;-63
2022/02/05 15:07:41;;;;;;;6.68;2.65;;;;;;;;;;5034530;28;20049;-64
2022/02/05 15:10:09;;;;;;;5.30;2.13;;;;;;;;;;5036078;28;20104;-62
2022/02/05 15:12:36;;;;;;;9.52;5.70;;;;;;;;;;5035583;28;20469;-63
2022/02/05 15:15:06;;;;;;;4.95;1.92;;;;;;;;;;5033777;28;20112;-62
2022/02/05 15:17:34;;;;;;;;;;;;;;;;;;5032326;28;20033;-62
2022/02/05 15:19:59;;;;;;;8.65;2.75;;;;;;;;;;5027961;28;19983;-62
2022/02/05 15:22:25;;;;;;;6.18;2.25;;;;;;;;;;5029816;28;20519;-62
2022/02/05 15:24:50;;;;;;;6.00;2.45;;;;;;;;;;5030712;28;20029;-61
2022/02/05 15:27:16;;;;;;;6.47;4.65;;;;;;;;;;5031453;28;20025;-61
2022/02/05 15:29:41;;;;;;;10.00;4.50;;;;;;;;;;5030679;28;20068;-61
2022/02/05 15:32:06;;;;;;;6.70;3.40;;;;;;;;;;5032832;28;20025;-62
2022/02/05 15:34:32;;;;;;;8.85;2.60;;;;;;;;;;5033088;28;20029;-62
2022/02/05 15:37:05;;;;;;;11.25;3.67;;;;;;;;;;5032293;28;20098;-62
2022/02/05 15:44:41;;;;;;;5.07;2.22;;;;;;;;;;5034308;28;20068;-62
2022/02/05 15:47:07;;;;;;;6.38;2.13;;;;;;;;;;5036062;28;20025;-62
2022/02/05 15:49:33;;;;;;;7.82;2.80;;;;;;;;;;5032762;28;20048;-62
2022/02/05 15:51:59;;;;;;;12.18;5.75;;;;;;;;;;5038465;28;20013;-61
2022/02/05 15:54:30;;;;;;;7.00;2.40;;;;;;;;;;5037642;28;20025;-61
2022/02/05 16:00:08;;;;;;;4.80;3.10;;;;;;;;;;5035642;28;20021;-62
2022/02/05 16:02:20;;;;;;;11.40;3.13;;;;;;;;;;5034546;28;20084;-62
2022/02/05 16:04:46;;;;;;;7.03;3.63;;;;;;;;;;5036754;28;20342;-62
2022/02/05 16:07:12;;;;;;;6.72;2.85;;;;;;;;;;5030743;28;20037;-62
2022/02/05 16:09:38;;;;;;;7.78;2.03;;;;;;;;;;5036701;28;20029;-61
2022/02/05 16:12:04;;;;;;;9.10;3.20;;;;;;;;;;5034536;28;20523;-62
2022/02/05 16:14:30;;;;;;;12.90;4.53;;;;;;;;;;5032760;28;20142;-61
2022/02/05 16:16:55;;;;;;;12.60;5.43;;;;;;;;;;5021258;28;20127;-61
2022/02/05 16:19:21;;;;;;;14.05;6.38;;;;;;;;;;5026669;28;20025;-62
2022/02/05 16:21:46;;;;;;;8.40;5.07;;;;;;;;;;5026378;28;20530;-61
2022/02/05 16:24:12;;;;;;;21.65;7.10;;;;;;;;;;5029636;28;20029;-61
2022/02/05 16:26:37;;;;;;;8.52;3.80;;;;;;;;;;5029182;28;20499;-61
2022/02/05 16:29:03;;;;;;;21.85;7.78;;;;;;;;;;5030056;28;20032;-61
2022/02/05 16:31:29;;;;;;;18.45;6.80;;;;;;;;;;5029048;28;20028;-62
2022/02/05 16:34:01;;;;;;;17.17;6.65;;;;;;;;;;5030496;28;20399;-61
2022/02/05 16:36:30;;;;;;;7.70;3.75;;;;;;;;;;5032173;28;20025;-61
2022/02/05 16:38:58;;;;;;;9.52;4.03;;;;;;;;;;5035220;28;20059;-61
2022/02/05 16:41:24;;;;;;;14.30;5.82;;;;;;;;;;5032410;28;20032;-61
2022/02/05 16:43:50;;;;;;;8.35;3.10;;;;;;;;;;5030205;28;20146;-61
2022/02/05 16:46:22;;;;;;;7.32;3.95;;;;;;;;;;5031235;28;20109;-61
2022/02/05 16:48:49;;;;;;;11.38;3.50;;;;;;;;;;5031702;28;20416;-61
2022/02/05 16:51:16;;;;;;;6.72;2.97;;;;;;;;;;5030462;28;20440;-61
2022/02/05 16:53:45;;;;;;;8.02;2.53;;;;;;;;;;5038579;28;20049;-61
2022/02/05 16:56:11;;;;;;;6.20;2.53;;;;;;;;;;5031324;28;20473;-61
2022/02/05 16:58:37;;;;;;;6.97;2.97;;;;;;;;;;5036778;28;20048;-61
2022/02/05 17:01:06;;;;;;;9.75;4.15;;;;;;;;;;5040386;28;20036;-61
2022/02/05 17:03:32;;;;;;;5.93;3.28;;;;;;;;;;5033888;28;20029;-61
2022/02/05 17:05:57;;;;;;;11.82;4.53;;;;;;;;;;5032314;28;20400;-61
2022/02/05 17:08:29;;;;;;;11.38;5.10;;;;;;;;;;5037592;28;20386;-61
2022/02/05 17:10:54;;;;;;;5.78;3.00;;;;;;;;;;5035508;28;20111;-62
2022/02/05 17:13:20;;;;;;;7.97;2.78;;;;;;;;;;5030100;28;20136;-61
2022/02/05 17:15:46;;;;;;;7.68;3.30;;;;;;;;;;5032994;28;20111;-61
2022/02/05 17:18:27;;;;;;;13.00;4.63;;;;;;;;;;5026204;28;20029;-62
2022/02/05 17:20:53;;;;;;;7.55;3.60;;;;;;;;;;5027008;28;20148;-62
2022/02/05 17:23:24;;;;;;;8.70;3.80;;;;;;;;;;5030578;28;20057;-60
2022/02/05 17:25:49;;;;;;;10.32;3.35;;;;;;;;;;5025729;28;20056;-61
2022/02/05 17:28:15;;;;;;;10.00;3.90;;;;;;;;;;5030136;28;20021;-61
2022/02/05 17:30:40;;;;;;;7.70;3.20;;;;;;;;;;5030337;28;20026;-61
2022/02/05 17:33:08;;;;;;;14.15;4.60;;;;;;;;;;5033658;28;20022;-61
2022/02/05 17:35:39;;;;;;;12.85;5.28;;;;;;;;;;5027311;28;20076;-62
2022/02/05 17:38:05;;;;;;;17.88;8.82;;;;;;;;;;5028744;28;20036;-61
2022/02/05 17:40:31;;;;;;;19.45;9.65;;;;;;;;;;5028512;28;20412;-61
2022/02/05 17:42:57;;;;;;;17.83;8.68;;;;;;;;;;5033534;28;20116;-61
2022/02/05 17:45:23;;;;;;;22.73;10.50;;;;;;;;;;5025142;28;20029;-62
2022/02/05 17:47:49;;;;;;;17.60;9.27;;;;;;;;;;5026059;28;20037;-61
2022/02/05 17:50:14;;;;;;;20.70;9.75;;;;;;;;;;5030142;28;20120;-62
2022/02/05 17:52:40;;;;;;;18.25;10.30;;;;;;;;;;5032550;28;20443;-61
2022/02/05 17:55:06;;;;;;;26.27;11.50;;;;;;;;;;5026950;28;20032;-61
2022/02/05 17:57:33;;;;;;;19.92;9.00;;;;;;;;;;5034828;28;20056;-61
2022/02/05 17:59:59;;;;;;;17.70;7.35;;;;;;;;;;5037498;28;20025;-61
2022/02/05 18:02:26;;;;;;;12.75;5.07;;;;;;;;;;5031053;28;20032;-61
2022/02/05 18:04:54;;;;;;;16.52;6.45;;;;;;;;;;5024684;28;20068;-61
2022/02/05 18:07:28;;;;;;;11.15;4.20;;;;;;;;;;5032166;28;20021;-61